createdAt,value
2018-11-07T00:00:53.111Z,99.99
2018-11-07T00:01:53.076Z,99.99
2018-11-07T00:02:53.142Z,99.99
2018-11-07T00:03:53.013Z,99.99
2018-11-07T00:04:52.980Z,99.99
2018-11-07T00:05:52.947Z,99.99
2018-11-07T00:06:52.912Z,99.99
2018-11-07T00:07:52.942Z,99.99
2018-11-07T00:08:52.842Z,99.99
2018-11-07T00:09:52.809Z,99.99
2018-11-07T00:10:52.775Z,99.99
2018-11-07T00:11:52.742Z,99.99
2018-11-07T00:12:52.710Z,99.99
2018-11-07T00:13:52.678Z,99.99
2018-11-07T00:14:52.642Z,99.99
2018-11-07T00:15:52.608Z,99.99
2018-11-07T00:16:52.576Z,99.99
2018-11-07T00:17:52.542Z,99.99
2018-11-07T00:18:52.508Z,99.99
2018-11-07T00:19:52.475Z,99.99
2018-11-07T00:20:52.442Z,99.99
2018-11-07T00:21:52.407Z,99.99
2018-11-07T00:22:52.374Z,99.99
2018-11-07T00:23:52.341Z,99.99
2018-11-07T00:24:52.308Z,99.99
2018-11-07T00:25:52.274Z,99.99
2018-11-07T00:26:52.241Z,99.99
2018-11-07T00:27:52.208Z,99.99
2018-11-07T00:28:52.175Z,99.99
2018-11-07T00:29:52.139Z,99.99
2018-11-07T00:30:52.108Z,99.99
2018-11-07T00:31:52.074Z,99.99
2018-11-07T00:32:52.041Z,99.99
2018-11-07T00:33:52.006Z,99.99
2018-11-07T00:34:51.979Z,99.99
2018-11-07T00:35:51.940Z,99.99
2018-11-07T00:36:51.907Z,99.99
2018-11-07T00:37:51.873Z,99.99
2018-11-07T00:38:51.839Z,99.99
2018-11-07T00:39:51.807Z,99.99
2018-11-07T00:40:51.770Z,99.99
2018-11-07T00:41:51.738Z,99.99
2018-11-07T00:42:51.705Z,99.99
2018-11-07T00:43:51.671Z,99.99
2018-11-07T00:44:51.638Z,99.99
2018-11-07T00:45:51.604Z,99.99
2018-11-07T00:46:51.571Z,99.99
2018-11-07T00:47:51.538Z,99.99
2018-11-07T00:48:51.504Z,99.99
2018-11-07T00:49:51.469Z,99.99
2018-11-07T00:50:51.437Z,99.99
2018-11-07T00:51:51.402Z,99.99
2018-11-07T00:52:51.375Z,99.99
2018-11-07T00:53:51.336Z,99.99
2018-11-07T00:54:51.302Z,99.99
2018-11-07T00:55:51.270Z,99.99
2018-11-07T00:56:51.236Z,99.99
2018-11-07T00:57:51.222Z,99.99
2018-11-07T00:58:51.169Z,99.99
2018-11-07T00:59:51.136Z,99.99
2018-11-07T01:00:51.101Z,99.99
2018-11-07T01:01:51.067Z,99.99
2018-11-07T01:02:51.035Z,99.99
2018-11-07T01:03:51.011Z,99.99
2018-11-07T01:04:50.968Z,99.99
2018-11-07T01:05:50.936Z,99.99
2018-11-07T01:06:50.901Z,99.99
2018-11-07T01:07:50.866Z,99.99
2018-11-07T01:08:50.835Z,99.99
2018-11-07T01:09:50.800Z,99.99
2018-11-07T01:10:50.768Z,99.99
2018-11-07T01:11:50.732Z,99.99
2018-11-07T01:12:50.701Z,99.99
2018-11-07T01:13:50.665Z,99.99
2018-11-07T01:14:50.634Z,99.99
2018-11-07T01:15:50.599Z,99.99
2018-11-07T01:16:50.642Z,99.99
2018-11-07T01:17:50.532Z,99.99
2018-11-07T01:18:50.498Z,99.99
2018-11-07T01:19:50.467Z,99.99
2018-11-07T01:20:50.433Z,99.99
2018-11-07T01:21:50.398Z,99.99
2018-11-07T01:22:50.364Z,99.99
2018-11-07T01:23:50.331Z,99.99
2018-11-07T01:24:50.300Z,99.99
2018-11-07T01:25:50.264Z,99.99
2018-11-07T01:26:50.229Z,99.99
2018-11-07T01:27:50.197Z,99.99
2018-11-07T01:28:50.163Z,99.99
2018-11-07T01:29:50.134Z,99.99
2018-11-07T01:30:50.098Z,99.99
2018-11-07T01:31:50.064Z,99.99
2018-11-07T01:32:50.030Z,99.99
2018-11-07T01:33:49.997Z,99.99
2018-11-07T01:34:49.965Z,99.99
2018-11-07T01:35:49.930Z,99.99
2018-11-07T01:36:49.896Z,99.99
2018-11-07T01:37:49.861Z,99.99
2018-11-07T01:38:49.828Z,99.99
2018-11-07T01:39:49.796Z,99.99
2018-11-07T01:40:49.767Z,99.99
2018-11-07T01:41:49.761Z,99.99
2018-11-07T01:42:49.694Z,99.99
2018-11-07T01:43:49.663Z,99.99
2018-11-07T01:44:49.629Z,99.99
2018-11-07T01:45:49.595Z,99.99
2018-11-07T01:46:49.565Z,99.99
2018-11-07T01:47:49.530Z,99.99
2018-11-07T01:48:49.496Z,99.99
2018-11-07T01:49:49.461Z,99.99
2018-11-07T01:50:49.427Z,99.99
2018-11-07T01:51:49.396Z,99.99
2018-11-07T01:52:49.361Z,99.99
2018-11-07T01:53:49.326Z,99.99
2018-11-07T01:54:49.295Z,99.99
2018-11-07T01:55:49.262Z,99.99
2018-11-07T01:56:49.232Z,99.99
2018-11-07T01:57:49.193Z,99.99
2018-11-07T01:58:49.160Z,99.99
2018-11-07T01:59:49.127Z,99.99
2018-11-07T02:00:49.095Z,99.99
2018-11-07T02:01:49.060Z,99.99
2018-11-07T02:02:49.030Z,99.99
2018-11-07T02:03:48.994Z,99.99
2018-11-07T02:04:48.961Z,99.99
2018-11-07T02:05:48.927Z,99.99
2018-11-07T02:06:48.893Z,99.99
2018-11-07T02:07:48.861Z,99.99
2018-11-07T02:08:48.827Z,99.99
2018-11-07T02:09:48.793Z,99.99
2018-11-07T02:10:48.760Z,99.99
2018-11-07T02:11:48.728Z,99.99
2018-11-07T02:12:48.696Z,99.99
2018-11-07T02:13:48.658Z,99.99
2018-11-07T02:14:48.625Z,99.99
2018-11-07T02:15:48.593Z,99.99
2018-11-07T02:16:48.561Z,99.99
2018-11-07T02:17:48.524Z,99.99
2018-11-07T02:18:48.493Z,99.99
2018-11-07T02:19:48.459Z,99.99
2018-11-07T02:20:48.427Z,99.99
2018-11-07T02:21:48.396Z,99.99
2018-11-07T02:22:48.359Z,99.99
2018-11-07T02:23:48.326Z,99.99
2018-11-07T02:24:48.293Z,99.99
2018-11-07T02:25:48.259Z,99.99
2018-11-07T02:26:48.226Z,99.99
2018-11-07T02:27:48.193Z,99.99
2018-11-07T02:28:48.162Z,99.99
2018-11-07T02:29:48.126Z,99.99
2018-11-07T02:30:48.101Z,99.99
2018-11-07T02:31:48.062Z,99.99
2018-11-07T02:32:48.032Z,99.99
2018-11-07T02:33:47.994Z,99.99
2018-11-07T02:34:47.961Z,99.99
2018-11-07T02:35:47.935Z,99.99
2018-11-07T02:36:47.988Z,99.99
2018-11-07T02:37:47.863Z,99.99
2018-11-07T02:38:47.831Z,99.99
2018-11-07T02:39:47.805Z,99.99
2018-11-07T02:40:47.765Z,99.99
2018-11-07T02:41:47.754Z,99.99
2018-11-07T02:42:47.700Z,99.99
2018-11-07T02:43:47.665Z,99.99
2018-11-07T02:44:47.632Z,99.99
2018-11-07T02:45:47.601Z,99.99
2018-11-07T02:46:47.567Z,99.99
2018-11-07T02:47:47.534Z,99.99
2018-11-07T02:48:47.502Z,99.99
2018-11-07T02:49:47.467Z,99.99
2018-11-07T02:50:47.438Z,99.99
2018-11-07T02:51:47.403Z,99.99
2018-11-07T02:52:47.371Z,99.99
2018-11-07T02:53:47.338Z,99.99
2018-11-07T02:54:47.304Z,99.99
2018-11-07T02:55:47.275Z,99.99
2018-11-07T02:56:47.246Z,99.99
2018-11-07T02:57:47.206Z,99.99
2018-11-07T02:58:47.176Z,99.99
2018-11-07T02:59:47.141Z,99.99
2018-11-07T03:00:47.108Z,99.99
2018-11-07T03:01:47.074Z,99.99
2018-11-07T03:02:47.042Z,99.99
2018-11-07T03:03:47.010Z,99.99
2018-11-07T03:04:46.977Z,99.99
2018-11-07T03:05:46.947Z,99.99
2018-11-07T03:06:46.912Z,99.99
2018-11-07T03:07:46.878Z,99.99
2018-11-07T03:08:46.846Z,99.99
2018-11-07T03:09:46.812Z,99.99
2018-11-07T03:10:46.933Z,99.99
2018-11-07T03:11:46.747Z,99.99
2018-11-07T03:12:46.716Z,99.99
2018-11-07T03:13:46.685Z,99.99
2018-11-07T03:14:46.648Z,99.99
2018-11-07T03:15:46.617Z,99.99
2018-11-07T03:16:46.585Z,99.99
2018-11-07T03:17:46.552Z,99.99
2018-11-07T03:18:46.517Z,99.99
2018-11-07T03:19:46.486Z,99.99
2018-11-07T03:20:46.453Z,99.99
2018-11-07T03:21:46.419Z,99.99
2018-11-07T03:22:46.394Z,99.99
2018-11-07T03:23:46.356Z,99.99
2018-11-07T03:24:46.320Z,99.99
2018-11-07T03:25:46.289Z,99.99
2018-11-07T03:26:46.254Z,99.99
2018-11-07T03:27:46.221Z,99.99
2018-11-07T03:28:46.189Z,99.99
2018-11-07T03:29:46.155Z,99.99
2018-11-07T03:30:46.127Z,99.99
2018-11-07T03:31:46.099Z,99.99
2018-11-07T03:32:46.059Z,99.99
2018-11-07T03:33:46.023Z,99.99
2018-11-07T03:34:45.989Z,99.99
2018-11-07T03:35:45.957Z,99.99
2018-11-07T03:36:45.924Z,99.99
2018-11-07T03:37:45.890Z,99.99
2018-11-07T03:38:45.858Z,99.99
2018-11-07T03:39:45.861Z,99.99
2018-11-07T03:40:45.796Z,99.99
2018-11-07T03:41:45.762Z,99.99
2018-11-07T03:42:45.735Z,99.99
2018-11-07T03:43:45.692Z,99.99
2018-11-07T03:44:45.658Z,99.99
2018-11-07T03:45:45.626Z,99.99
2018-11-07T03:46:45.592Z,99.99
2018-11-07T03:47:45.559Z,99.99
2018-11-07T03:48:45.528Z,99.99
2018-11-07T03:49:45.494Z,99.99
2018-11-07T03:50:45.460Z,99.99
2018-11-07T03:51:45.427Z,99.99
2018-11-07T03:52:45.403Z,99.99
2018-11-07T03:53:45.376Z,99.99
2018-11-07T03:54:45.327Z,99.99
2018-11-07T03:55:45.295Z,99.99
2018-11-07T03:56:45.262Z,99.99
2018-11-07T03:57:45.231Z,99.99
2018-11-07T03:58:45.195Z,99.99
2018-11-07T03:59:45.162Z,99.99
2018-11-07T04:00:45.129Z,99.99
2018-11-07T04:01:45.095Z,99.99
2018-11-07T04:02:45.063Z,99.99
2018-11-07T04:03:45.031Z,99.99
2018-11-07T04:04:44.998Z,99.99
2018-11-07T04:05:44.964Z,99.99
2018-11-07T04:06:44.931Z,99.99
2018-11-07T04:07:44.907Z,99.99
2018-11-07T04:08:44.866Z,99.99
2018-11-07T04:09:44.832Z,99.99
2018-11-07T04:10:44.799Z,99.99
2018-11-07T04:11:44.768Z,99.99
2018-11-07T04:12:44.735Z,99.99
2018-11-07T04:13:44.705Z,99.99
2018-11-07T04:14:44.668Z,99.99
2018-11-07T04:15:44.637Z,99.99
2018-11-07T04:16:44.603Z,99.99
2018-11-07T04:17:44.569Z,99.99
2018-11-07T04:18:44.537Z,99.99
2018-11-07T04:19:44.503Z,99.99
2018-11-07T04:20:44.472Z,99.99
2018-11-07T04:21:44.438Z,99.99
2018-11-07T04:22:44.407Z,99.99
2018-11-07T04:23:44.374Z,99.99
2018-11-07T04:24:44.341Z,99.99
2018-11-07T04:25:44.307Z,99.99
2018-11-07T04:26:44.275Z,99.99
2018-11-07T04:27:44.243Z,99.99
2018-11-07T04:28:44.230Z,99.99
2018-11-07T04:29:44.179Z,99.99
2018-11-07T04:30:44.143Z,99.99
2018-11-07T04:31:44.110Z,99.99
2018-11-07T04:32:44.083Z,99.99
2018-11-07T04:33:44.067Z,99.99
2018-11-07T04:34:44.015Z,99.99
2018-11-07T04:35:43.982Z,99.99
2018-11-07T04:36:43.948Z,99.99
2018-11-07T04:37:43.915Z,99.99
2018-11-07T04:38:43.883Z,99.99
2018-11-07T04:39:43.850Z,99.99
2018-11-07T04:40:43.819Z,99.99
2018-11-07T04:41:43.784Z,99.99
2018-11-07T04:42:43.752Z,99.99
2018-11-07T04:43:43.721Z,99.99
2018-11-07T04:44:43.688Z,99.99
2018-11-07T04:45:43.655Z,99.99
2018-11-07T04:46:43.621Z,99.99
2018-11-07T04:47:43.592Z,99.99
2018-11-07T04:48:43.558Z,99.99
2018-11-07T04:49:43.525Z,99.99
2018-11-07T04:50:43.492Z,99.99
2018-11-07T04:51:43.462Z,99.99
2018-11-07T04:52:43.427Z,99.99
2018-11-07T04:53:43.401Z,99.99
2018-11-07T04:54:43.364Z,99.99
2018-11-07T04:55:43.331Z,99.99
2018-11-07T04:56:43.299Z,99.99
2018-11-07T04:57:43.266Z,99.99
2018-11-07T04:58:43.234Z,99.99
2018-11-07T04:59:43.200Z,99.99
2018-11-07T05:00:43.170Z,99.99
2018-11-07T05:01:43.136Z,99.99
2018-11-07T05:02:43.104Z,99.99
2018-11-07T05:03:43.072Z,99.99
2018-11-07T05:04:43.039Z,99.99
2018-11-07T05:05:43.007Z,99.99
2018-11-07T05:06:42.975Z,99.99
2018-11-07T05:07:42.942Z,99.99
2018-11-07T05:08:42.991Z,99.99
2018-11-07T05:09:42.876Z,99.99
2018-11-07T05:10:42.846Z,99.99
2018-11-07T05:11:42.813Z,99.99
2018-11-07T05:12:42.785Z,99.99
2018-11-07T05:13:42.748Z,99.99
2018-11-07T05:14:42.716Z,99.99
2018-11-07T05:15:42.685Z,99.99
2018-11-07T05:16:42.653Z,99.99
2018-11-07T05:17:42.619Z,99.99
2018-11-07T05:18:42.586Z,99.99
2018-11-07T05:19:42.667Z,99.99
2018-11-07T05:20:42.523Z,99.99
2018-11-07T05:21:42.489Z,99.99
2018-11-07T05:22:42.457Z,99.99
2018-11-07T05:23:42.425Z,99.99
2018-11-07T05:24:42.392Z,99.99
2018-11-07T05:25:42.360Z,99.99
2018-11-07T05:26:42.328Z,99.99
2018-11-07T05:27:42.295Z,99.99
2018-11-07T05:28:42.264Z,99.99
2018-11-07T05:29:42.233Z,99.99
2018-11-07T05:30:42.199Z,99.99
2018-11-07T05:31:42.200Z,99.99
2018-11-07T05:32:42.134Z,99.99
2018-11-07T05:33:42.100Z,99.99
2018-11-07T05:34:42.069Z,99.99
2018-11-07T05:35:42.036Z,99.99
2018-11-07T05:36:42.004Z,99.99
2018-11-07T05:37:41.972Z,99.99
2018-11-07T05:38:41.940Z,99.99
2018-11-07T05:39:41.907Z,99.99
2018-11-07T05:40:41.874Z,99.99
2018-11-07T05:41:41.842Z,99.99
2018-11-07T05:42:41.811Z,99.99
2018-11-07T05:43:41.777Z,99.99
2018-11-07T05:44:41.748Z,99.99
2018-11-07T05:45:41.713Z,99.99
2018-11-07T05:46:41.680Z,99.99
2018-11-07T05:47:41.651Z,99.99
2018-11-07T05:48:41.616Z,99.99
2018-11-07T05:49:41.583Z,99.99
2018-11-07T05:50:41.551Z,99.99
2018-11-07T05:51:41.517Z,99.99
2018-11-07T05:52:41.486Z,99.99
2018-11-07T05:53:41.467Z,99.99
2018-11-07T05:54:41.421Z,99.99
2018-11-07T05:55:41.389Z,99.99
2018-11-07T05:56:41.358Z,99.99
2018-11-07T05:57:41.324Z,99.99
2018-11-07T05:58:41.293Z,99.99
2018-11-07T05:59:41.259Z,99.99
2018-11-07T06:00:41.227Z,99.99
2018-11-07T06:01:41.194Z,99.99
2018-11-07T06:02:41.166Z,99.99
2018-11-07T06:03:41.131Z,99.99
2018-11-07T06:04:41.098Z,99.99
2018-11-07T06:05:41.067Z,99.99
2018-11-07T06:06:41.032Z,99.99
2018-11-07T06:07:41.002Z,99.99
2018-11-07T06:08:40.970Z,99.99
2018-11-07T06:09:40.937Z,99.99
2018-11-07T06:10:40.905Z,99.99
2018-11-07T06:11:40.873Z,99.99
2018-11-07T06:12:40.840Z,99.99
2018-11-07T06:13:40.811Z,99.99
2018-11-07T06:14:40.775Z,99.99
2018-11-07T06:15:40.744Z,99.99
2018-11-07T06:16:40.713Z,99.99
2018-11-07T06:17:40.677Z,99.99
2018-11-07T06:18:40.648Z,99.99
2018-11-07T06:19:40.617Z,99.99
2018-11-07T06:20:40.582Z,99.99
2018-11-07T06:21:40.550Z,99.99
2018-11-07T06:22:40.518Z,99.99
2018-11-07T06:23:40.485Z,99.99
2018-11-07T06:24:40.534Z,99.99
2018-11-07T06:25:40.420Z,99.99
2018-11-07T06:26:40.389Z,99.99
2018-11-07T06:27:40.357Z,99.99
2018-11-07T06:28:40.324Z,99.99
2018-11-07T06:29:40.292Z,99.99
2018-11-07T06:30:40.260Z,99.99
2018-11-07T06:31:40.227Z,99.99
2018-11-07T06:32:40.198Z,99.99
2018-11-07T06:33:40.162Z,99.99
2018-11-07T06:34:40.131Z,99.99
2018-11-07T06:35:40.099Z,99.99
2018-11-07T06:36:40.066Z,99.99
2018-11-07T06:37:40.035Z,99.99
2018-11-07T06:38:40.005Z,99.99
2018-11-07T06:39:39.968Z,99.99
2018-11-07T06:40:39.936Z,99.99
2018-11-07T06:41:39.904Z,99.99
2018-11-07T06:42:39.872Z,99.99
2018-11-07T06:43:39.840Z,99.99
2018-11-07T06:44:39.853Z,99.99
2018-11-07T06:45:39.775Z,99.99
2018-11-07T06:46:39.742Z,99.99
2018-11-07T06:47:39.710Z,99.99
2018-11-07T06:48:39.678Z,99.99
2018-11-07T06:49:39.647Z,99.99
2018-11-07T06:50:39.613Z,99.99
2018-11-07T06:51:39.580Z,99.99
2018-11-07T06:52:39.550Z,99.99
2018-11-07T06:53:39.516Z,99.99
2018-11-07T06:54:39.491Z,99.99
2018-11-07T06:55:39.462Z,99.99
2018-11-07T06:56:39.418Z,99.99
2018-11-07T06:57:39.385Z,99.99
2018-11-07T06:58:39.352Z,99.99
2018-11-07T06:59:39.321Z,99.99
2018-11-07T07:00:39.298Z,99.99
2018-11-07T07:01:39.255Z,99.99
2018-11-07T07:02:39.223Z,99.99
2018-11-07T07:03:39.191Z,99.99
2018-11-07T07:04:39.158Z,99.99
2018-11-07T07:05:39.125Z,99.99
2018-11-07T07:06:39.100Z,99.99
2018-11-07T07:07:39.061Z,99.99
2018-11-07T07:08:39.030Z,99.99
2018-11-07T07:09:38.994Z,99.99
2018-11-07T07:10:38.963Z,99.99
2018-11-07T07:11:38.929Z,99.99
2018-11-07T07:12:38.898Z,99.99
2018-11-07T07:13:38.867Z,99.99
2018-11-07T07:14:38.832Z,99.99
2018-11-07T07:15:38.800Z,99.99
2018-11-07T07:16:38.767Z,99.99
2018-11-07T07:17:38.795Z,99.99
2018-11-07T07:18:38.703Z,99.99
2018-11-07T07:19:38.670Z,99.99
2018-11-07T07:20:38.637Z,99.99
2018-11-07T07:21:38.609Z,99.99
2018-11-07T07:22:38.577Z,99.99
2018-11-07T07:23:38.542Z,99.99
2018-11-07T07:24:38.509Z,99.99
2018-11-07T07:25:38.591Z,99.99
2018-11-07T07:26:38.443Z,99.99
2018-11-07T07:27:38.412Z,99.99
2018-11-07T07:28:38.378Z,99.99
2018-11-07T07:29:38.347Z,99.99
2018-11-07T07:30:38.411Z,99.99
2018-11-07T07:31:38.281Z,99.99
2018-11-07T07:32:38.249Z,99.99
2018-11-07T07:33:38.237Z,99.99
2018-11-07T07:34:38.186Z,99.99
2018-11-07T07:35:38.154Z,99.99
2018-11-07T07:36:38.121Z,99.99
2018-11-07T07:37:38.090Z,99.99
2018-11-07T07:38:38.062Z,99.99
2018-11-07T07:39:38.026Z,99.99
2018-11-07T07:40:38.000Z,99.99
2018-11-07T07:41:37.961Z,99.99
2018-11-07T07:42:37.929Z,99.99
2018-11-07T07:43:37.899Z,99.99
2018-11-07T07:44:37.868Z,99.99
2018-11-07T07:45:37.916Z,99.99
2018-11-07T07:46:37.805Z,99.99
2018-11-07T07:47:37.771Z,99.99
2018-11-07T07:48:37.740Z,99.99
2018-11-07T07:49:37.708Z,99.99
2018-11-07T07:50:37.674Z,99.99
2018-11-07T07:51:37.680Z,99.99
2018-11-07T07:52:37.613Z,99.99
2018-11-07T07:53:37.582Z,99.99
2018-11-07T07:54:37.549Z,99.99
2018-11-07T07:55:37.519Z,99.99
2018-11-07T07:56:37.487Z,99.99
2018-11-07T07:57:37.454Z,99.99
2018-11-07T07:58:37.422Z,99.99
2018-11-07T07:59:37.397Z,99.99
2018-11-07T08:00:37.361Z,99.99
2018-11-07T08:01:37.330Z,99.99
2018-11-07T08:02:37.298Z,99.99
2018-11-07T08:03:37.266Z,99.99
2018-11-07T08:04:37.235Z,99.99
2018-11-07T08:05:37.203Z,99.99
2018-11-07T08:06:37.172Z,99.99
2018-11-07T08:07:37.144Z,99.99
2018-11-07T08:08:37.111Z,99.99
2018-11-07T08:09:37.080Z,99.99
2018-11-07T08:10:37.049Z,99.99
2018-11-07T08:11:37.018Z,99.99
2018-11-07T08:12:36.991Z,99.99
2018-11-07T08:13:36.993Z,99.99
2018-11-07T08:14:36.924Z,99.99
2018-11-07T08:15:36.893Z,99.99
2018-11-07T08:16:36.862Z,99.99
2018-11-07T08:17:36.830Z,99.99
2018-11-07T08:18:36.800Z,99.99
2018-11-07T08:19:36.771Z,99.99
2018-11-07T08:20:36.742Z,99.99
2018-11-07T08:21:36.706Z,99.99
2018-11-07T08:22:36.677Z,99.99
2018-11-07T08:23:36.646Z,99.99
2018-11-07T08:24:36.616Z,99.99
2018-11-07T08:25:36.585Z,99.99
2018-11-07T08:26:36.554Z,99.99
2018-11-07T08:27:36.522Z,99.99
2018-11-07T08:28:36.493Z,99.99
2018-11-07T08:29:36.465Z,99.99
2018-11-07T08:30:36.434Z,99.99
2018-11-07T08:31:36.402Z,99.99
2018-11-07T08:32:36.372Z,99.99
2018-11-07T08:33:36.342Z,99.99
2018-11-07T08:34:36.311Z,99.99
2018-11-07T08:35:36.281Z,99.99
2018-11-07T08:36:36.251Z,99.99
2018-11-07T08:37:36.219Z,99.99
2018-11-07T08:38:36.190Z,99.99
2018-11-07T08:39:36.161Z,99.99
2018-11-07T08:40:36.131Z,99.99
2018-11-07T08:41:36.101Z,99.99
2018-11-07T08:42:36.069Z,99.99
2018-11-07T08:43:36.043Z,99.99
2018-11-07T08:44:36.011Z,99.99
2018-11-07T08:45:35.979Z,99.99
2018-11-07T08:46:35.951Z,99.99
2018-11-07T08:47:35.921Z,99.99
2018-11-07T08:48:35.891Z,99.99
2018-11-07T08:49:35.863Z,99.99
2018-11-07T08:50:35.832Z,99.99
2018-11-07T08:51:35.802Z,99.99
2018-11-07T08:52:35.924Z,99.99
2018-11-07T08:53:35.750Z,99.99
2018-11-07T08:54:35.716Z,99.99
2018-11-07T08:55:35.685Z,99.99
2018-11-07T08:56:35.658Z,99.99
2018-11-07T08:57:35.628Z,99.99
2018-11-07T08:58:35.600Z,99.99
2018-11-07T08:59:35.570Z,99.99
2018-11-07T09:00:35.542Z,99.99
2018-11-07T09:02:35.485Z,99.99
2018-11-07T09:03:35.456Z,99.99
2018-11-07T09:04:35.430Z,99.99
2018-11-07T09:05:35.401Z,99.99
2018-11-07T09:06:35.374Z,99.99
2018-11-07T09:07:35.343Z,99.99
2018-11-07T09:08:35.316Z,99.99
2018-11-07T09:09:35.292Z,99.99
2018-11-07T09:10:35.261Z,99.99
2018-11-07T09:11:35.232Z,99.99
2018-11-07T09:12:35.205Z,99.99
2018-11-07T09:13:35.177Z,99.99
2018-11-07T09:14:35.149Z,99.99
2018-11-07T09:15:35.121Z,99.99
2018-11-07T09:16:35.094Z,99.99
2018-11-07T09:17:35.067Z,99.99
2018-11-07T09:18:35.040Z,97.90
2018-11-07T09:19:35.027Z,97.04
2018-11-07T09:20:35.013Z,95.07
2018-11-07T09:21:34.959Z,93.83
2018-11-07T09:22:34.932Z,94.36
2018-11-07T09:23:34.906Z,95.65
2018-11-07T09:24:34.949Z,98.24
2018-11-07T09:25:34.853Z,98.43
2018-11-07T09:26:34.827Z,99.99
2018-11-07T09:27:34.834Z,99.10
2018-11-07T09:28:34.775Z,96.94
2018-11-07T09:29:34.747Z,98.19
2018-11-07T09:30:34.722Z,96.80
2018-11-07T09:31:34.696Z,95.51
2018-11-07T09:32:34.671Z,96.13
2018-11-07T09:33:34.644Z,95.12
2018-11-07T09:34:34.619Z,95.65
2018-11-07T09:35:34.593Z,94.89
2018-11-07T09:36:34.568Z,93.64
2018-11-07T09:37:34.542Z,94.89
2018-11-07T09:38:34.515Z,94.02
2018-11-07T09:39:34.533Z,95.75
2018-11-07T09:40:34.464Z,95.26
2018-11-07T09:41:34.436Z,92.54
2018-11-07T09:42:34.410Z,90.04
2018-11-07T09:43:34.386Z,89.47
2018-11-07T09:44:34.361Z,88.94
2018-11-07T09:45:34.334Z,89.13
2018-11-07T09:46:34.309Z,89.95
2018-11-07T09:47:34.414Z,91.58
2018-11-07T09:48:34.258Z,93.11
2018-11-07T09:49:34.233Z,91.10
2018-11-07T09:50:34.207Z,89.66
2018-11-07T09:51:34.182Z,89.28
2018-11-07T09:52:34.157Z,89.28
2018-11-07T09:53:34.156Z,89.95
2018-11-07T09:54:34.106Z,91.39
2018-11-07T09:55:34.081Z,91.57
2018-11-07T09:56:34.056Z,87.98
2018-11-07T09:57:34.030Z,88.84
2018-11-07T09:58:34.004Z,88.70
2018-11-07T09:59:34.095Z,88.65
2018-11-07T10:00:33.953Z,87.12
2018-11-07T10:01:33.931Z,87.31
2018-11-07T10:02:33.903Z,87.16
2018-11-07T10:03:33.878Z,86.92
2018-11-07T10:04:33.854Z,85.82
2018-11-07T10:05:33.866Z,85.34
2018-11-07T10:06:33.855Z,87.26
2018-11-07T10:07:33.780Z,86.93
2018-11-07T10:08:33.754Z,87.45
2018-11-07T10:09:33.727Z,85.53
2018-11-07T10:10:33.701Z,85.48
2018-11-07T10:11:33.677Z,85.86
2018-11-07T10:12:33.714Z,84.67
2018-11-07T10:13:33.626Z,84.42
2018-11-07T10:14:33.602Z,84.04
2018-11-07T10:15:33.576Z,83.98
2018-11-07T10:16:33.551Z,83.22
2018-11-07T10:17:33.526Z,82.31
2018-11-07T10:18:33.502Z,83.27
2018-11-07T10:19:33.476Z,83.27
2018-11-07T10:20:33.533Z,82.60
2018-11-07T10:21:33.425Z,82.84
2018-11-07T10:22:33.404Z,82.84
2018-11-07T10:23:33.377Z,82.35
2018-11-07T10:24:33.351Z,81.87
2018-11-07T10:25:33.328Z,81.40
2018-11-07T10:26:33.365Z,81.30
2018-11-07T10:27:33.600Z,81.10
2018-11-07T10:28:33.479Z,80.28
2018-11-07T10:29:33.447Z,80.32
2018-11-07T10:30:33.333Z,79.30
2018-11-07T10:31:33.177Z,76.90
2018-11-07T10:32:33.154Z,77.09
2018-11-07T10:33:33.128Z,76.52
2018-11-07T10:34:33.161Z,76.86
2018-11-07T10:35:33.080Z,77.44
2018-11-07T10:36:33.056Z,78.40
2018-11-07T10:37:33.029Z,77.50
2018-11-07T10:38:33.144Z,78.21
2018-11-07T10:39:33.008Z,77.01
2018-11-07T10:40:32.955Z,78.17
2018-11-07T10:41:32.934Z,78.45
2018-11-07T10:42:32.906Z,77.78
2018-11-07T10:43:32.881Z,77.83
2018-11-07T10:44:32.981Z,77.34
2018-11-07T10:45:32.832Z,76.57
2018-11-07T10:46:32.808Z,75.65
2018-11-07T10:47:32.783Z,75.65
2018-11-07T10:48:32.756Z,75.75
2018-11-07T10:49:32.732Z,76.57
2018-11-07T10:50:32.709Z,76.86
2018-11-07T10:51:32.684Z,76.67
2018-11-07T10:52:32.661Z,77.40
2018-11-07T10:53:32.635Z,77.94
2018-11-07T10:54:32.611Z,79.76
2018-11-07T10:55:32.588Z,80.66
2018-11-07T10:56:32.561Z,79.55
2018-11-07T10:57:32.538Z,77.42
2018-11-07T10:58:32.515Z,75.90
2018-11-07T10:59:32.487Z,76.14
2018-11-07T11:00:32.464Z,75.07
2018-11-07T11:01:32.437Z,73.77
2018-11-07T11:02:32.414Z,72.65
2018-11-07T11:03:32.390Z,73.36
2018-11-07T11:04:32.370Z,70.76
2018-11-07T11:05:32.340Z,70.76
2018-11-07T11:06:32.316Z,69.60
2018-11-07T11:07:32.292Z,68.68
2018-11-07T11:08:32.269Z,68.71
2018-11-07T11:09:32.243Z,68.26
2018-11-07T11:10:32.218Z,66.91
2018-11-07T11:11:32.195Z,66.72
2018-11-07T11:12:32.170Z,66.17
2018-11-07T11:13:32.144Z,65.75
2018-11-07T11:14:32.121Z,65.17
2018-11-07T11:15:32.096Z,65.69
2018-11-07T11:16:32.074Z,65.37
2018-11-07T11:17:32.118Z,65.66
2018-11-07T11:18:32.023Z,65.59
2018-11-07T11:19:31.999Z,68.22
2018-11-07T11:20:31.975Z,70.43
2018-11-07T11:21:31.949Z,71.97
2018-11-07T11:22:31.926Z,71.30
2018-11-07T11:23:31.906Z,71.20
2018-11-07T11:24:31.881Z,70.82
2018-11-07T11:25:31.851Z,71.26
2018-11-07T11:26:31.830Z,71.71
2018-11-07T11:27:31.885Z,72.03
2018-11-07T11:28:31.780Z,71.59
2018-11-07T11:29:31.756Z,72.11
2018-11-07T11:30:31.731Z,69.60
2018-11-07T11:31:31.730Z,69.22
2018-11-07T11:32:31.682Z,68.70
2018-11-07T11:33:31.657Z,69.67
2018-11-07T11:34:31.743Z,71.65
2018-11-07T11:35:31.609Z,72.71
2018-11-07T11:36:31.586Z,73.44
2018-11-07T11:37:31.557Z,75.10
2018-11-07T11:38:31.533Z,76.25
2018-11-07T11:39:31.510Z,77.01
2018-11-07T11:40:31.502Z,77.50
2018-11-07T11:41:31.459Z,77.11
2018-11-07T11:42:31.435Z,77.53
2018-11-07T11:43:31.411Z,75.75
2018-11-07T11:44:31.385Z,74.79
2018-11-07T11:45:31.361Z,73.54
2018-11-07T11:46:31.339Z,73.35
2018-11-07T11:47:31.311Z,72.58
2018-11-07T11:48:31.288Z,72.61
2018-11-07T11:49:31.261Z,72.42
2018-11-07T11:50:31.235Z,71.17
2018-11-07T11:51:31.212Z,71.97
2018-11-07T11:52:31.188Z,70.92
2018-11-07T11:53:31.163Z,69.79
2018-11-07T11:54:31.137Z,68.87
2018-11-07T11:55:31.114Z,68.29
2018-11-07T11:56:31.091Z,68.26
2018-11-07T11:57:31.066Z,69.18
2018-11-07T11:58:31.039Z,69.53
2018-11-07T11:59:31.135Z,71.26
2018-11-07T12:00:31.051Z,70.68
2018-11-07T12:01:30.965Z,70.95
2018-11-07T12:02:30.945Z,69.22
2018-11-07T12:03:30.917Z,68.74
2018-11-07T12:04:30.892Z,68.80
2018-11-07T12:05:30.867Z,69.95
2018-11-07T12:06:30.866Z,69.51
2018-11-07T12:07:30.821Z,68.10
2018-11-07T12:08:30.902Z,67.07
2018-11-07T12:09:30.770Z,67.13
2018-11-07T12:10:30.746Z,68.19
2018-11-07T12:11:30.722Z,67.77
2018-11-07T12:12:30.696Z,69.47
2018-11-07T12:13:30.709Z,69.76
2018-11-07T12:14:30.650Z,69.76
2018-11-07T12:15:30.714Z,70.34
2018-11-07T12:16:30.600Z,69.67
2018-11-07T12:17:30.576Z,70.68
2018-11-07T12:18:30.551Z,70.98
2018-11-07T12:19:30.526Z,72.03
2018-11-07T12:20:30.502Z,72.61
2018-11-07T12:21:30.476Z,74.05
2018-11-07T12:22:30.452Z,75.02
2018-11-07T12:23:30.428Z,74.29
2018-11-07T12:24:30.404Z,72.97
2018-11-07T12:25:30.379Z,71.76
2018-11-07T12:26:30.353Z,71.66
2018-11-07T12:27:30.331Z,71.85
2018-11-07T12:28:30.307Z,72.30
2018-11-07T12:29:30.281Z,72.59
2018-11-07T12:30:30.255Z,72.59
2018-11-07T12:31:30.231Z,72.65
2018-11-07T12:32:30.207Z,73.46
2018-11-07T12:33:30.181Z,73.13
2018-11-07T12:34:30.156Z,73.51
2018-11-07T12:35:30.133Z,74.63
2018-11-07T12:36:30.248Z,75.11
2018-11-07T12:37:30.084Z,75.15
2018-11-07T12:38:30.059Z,74.57
2018-11-07T12:39:30.034Z,74.22
2018-11-07T12:40:30.010Z,74.67
2018-11-07T12:41:29.984Z,74.44
2018-11-07T12:42:29.961Z,75.15
2018-11-07T12:43:29.933Z,74.19
2018-11-07T12:44:29.910Z,73.90
2018-11-07T12:45:29.883Z,74.73
2018-11-07T12:46:29.858Z,75.59
2018-11-07T12:47:29.833Z,76.07
2018-11-07T12:48:29.809Z,75.24
2018-11-07T12:49:29.787Z,74.86
2018-11-07T12:50:29.809Z,74.13
2018-11-07T12:51:29.734Z,73.94
2018-11-07T12:52:29.710Z,73.55
2018-11-07T12:53:29.682Z,74.57